Rickenbacker International Airport Columbus US
ICAO: KLCK
IATA: LCK
Category: Large
Scheduled Services: No

Elevation: 744 ft
TransAlt. 18000 ft.

Airport Communications:
COLUMBUS APP:119.15
AWOS 3:132.75
COLUMBUS DEP:123.8
GND:121.85
ARNG OPS:36.7
COMD POST:23.88
RICK TWR:120.05
UNICOM:122.95

KLCK Zoom In..

If Map Doesn't Load, Click Here

Runways:

(A) RW 05L length 11902 ft width 150 ft
ILS 110.55 / hdg 52

(B) RW 05R length 12102 ft width 200 ft
ILS 110.10 / hdg 52

(C) RW 23L length 12102 ft width 200 ft
ILS 110.10 / hdg 232

(D) RW 23R length 11902 ft width 150 ft
---- / hdg 232

Location; KLCK
Day. 21 / Time. 14.15 Zulu
* Altimeter: 30.02
* Temperature: 27° c. 80.6°f.
* Wind from: 210° Speed 15 kn with Gusts up to 20 kn.
Dewpoint: 20° c.
Visibility: 10 Statute Miles.
Clouds: Scattered 11000 ft.

KLCK 211415Z AUTO 21015G20KT 10SM SCT110 27/20 A3002 RMK AO2 T02690196


Wind From 210°
Speed 15 kn.

 
 
jpsmedia.com for Web Design worldairports.se 2018   terms of use